createdAt,value
2022-09-17T00:00:19.841Z,15.08
2022-09-17T00:03:41.511Z,15.30
2022-09-17T00:07:03.772Z,15.20
2022-09-17T00:10:25.434Z,15.26
2022-09-17T00:13:47.864Z,15.36
2022-09-17T00:17:09.378Z,15.63
2022-09-17T00:20:30.879Z,15.58
2022-09-17T00:24:04.364Z,16.01
2022-09-17T00:27:25.880Z,16.23
2022-09-17T00:30:47.456Z,16.40
2022-09-17T00:34:12.259Z,16.43
2022-09-17T00:37:33.816Z,16.38
2022-09-17T00:40:55.875Z,16.08
2022-09-17T00:44:57.486Z,15.44
2022-09-17T00:48:19.007Z,15.15
2022-09-17T00:51:49.744Z,15.09
2022-09-17T00:55:28.858Z,15.05
2022-09-17T00:58:57.181Z,15.12
2022-09-17T01:02:18.949Z,14.96
2022-09-17T01:05:49.800Z,15.02
2022-09-17T01:09:26.176Z,15.13
2022-09-17T01:13:22.216Z,15.33
2022-09-17T01:17:09.158Z,15.61
2022-09-17T01:20:38.841Z,15.87
2022-09-17T01:24:09.445Z,16.01
2022-09-17T01:28:08.603Z,16.06
2022-09-17T01:31:52.900Z,16.29
2022-09-17T01:35:33.742Z,16.39
2022-09-17T01:39:15.463Z,16.18
2022-09-17T01:42:57.469Z,15.70
2022-09-17T01:46:24.779Z,14.95
2022-09-17T01:49:49.721Z,14.98
2022-09-17T01:53:15.020Z,14.87
2022-09-17T01:56:41.706Z,14.99
2022-09-17T02:00:17.429Z,14.54
2022-09-17T02:03:51.862Z,14.47
2022-09-17T02:07:20.509Z,14.54
2022-09-17T02:10:52.622Z,14.93
2022-09-17T02:14:21.413Z,15.10
2022-09-17T02:17:50.074Z,15.29
2022-09-17T02:21:17.258Z,15.67
2022-09-17T02:24:48.308Z,14.89
2022-09-17T02:29:04.624Z,14.91
2022-09-17T02:32:28.784Z,15.06
2022-09-17T02:35:52.924Z,14.81
2022-09-17T02:39:14.426Z,14.81
2022-09-17T02:43:09.943Z,14.57
2022-09-17T02:46:34.636Z,14.67
2022-09-17T02:50:34.414Z,15.06
2022-09-17T02:54:05.303Z,15.02
2022-09-17T02:58:09.629Z,14.82
2022-09-17T03:01:42.218Z,14.60
2022-09-17T03:05:06.933Z,14.13
2022-09-17T03:08:32.313Z,14.14
2022-09-17T03:11:56.027Z,14.34
2022-09-17T03:15:19.793Z,14.29
2022-09-17T03:18:41.282Z,14.63
2022-09-17T03:22:05.251Z,14.27
2022-09-17T03:25:26.711Z,14.50
2022-09-17T03:28:48.298Z,14.99
2022-09-17T03:32:12.289Z,15.30
2022-09-17T03:35:33.799Z,15.46
2022-09-17T03:39:01.142Z,15.50
2022-09-17T03:42:25.349Z,15.67
2022-09-17T03:45:48.143Z,15.35
2022-09-17T03:49:09.660Z,15.05
2022-09-17T03:52:31.312Z,15.06
2022-09-17T03:55:52.881Z,14.96
2022-09-17T03:59:14.769Z,15.02
2022-09-17T04:02:38.788Z,15.19
2022-09-17T04:06:00.541Z,14.88
2022-09-17T04:09:24.207Z,14.47
2022-09-17T04:12:45.697Z,14.75
2022-09-17T04:16:09.855Z,14.13
2022-09-17T04:19:31.430Z,14.51
2022-09-17T04:22:53.676Z,14.63
2022-09-17T04:26:15.247Z,14.93
2022-09-17T04:29:36.774Z,15.12
2022-09-17T04:32:58.246Z,14.96
2022-09-17T04:36:22.486Z,14.95
2022-09-17T04:39:46.458Z,15.12
2022-09-17T04:43:10.568Z,15.16
2022-09-17T04:46:34.387Z,15.30
2022-09-17T04:49:58.264Z,15.37
2022-09-17T04:53:20.075Z,15.13
2022-09-17T04:56:44.299Z,15.20
2022-09-17T05:00:11.061Z,15.29
2022-09-17T05:03:32.611Z,15.22
2022-09-17T05:06:54.146Z,15.12
2022-09-17T05:10:17.993Z,14.84
2022-09-17T05:13:39.486Z,14.71
2022-09-17T05:17:04.071Z,14.74
2022-09-17T05:20:28.154Z,15.02
2022-09-17T05:23:49.764Z,15.26
2022-09-17T05:27:16.203Z,15.19
2022-09-17T05:30:37.762Z,15.23
2022-09-17T05:33:59.285Z,15.25
2022-09-17T05:37:23.178Z,15.42
2022-09-17T05:40:45.507Z,15.78
2022-09-17T05:44:09.198Z,16.34
2022-09-17T05:47:30.950Z,16.57
2022-09-17T05:50:55.299Z,17.19
2022-09-17T05:54:19.159Z,17.76
2022-09-17T05:57:43.092Z,18.15
2022-09-17T06:01:04.714Z,18.25
2022-09-17T06:04:27.699Z,18.05
2022-09-17T06:07:56.364Z,18.04
2022-09-17T06:11:17.876Z,17.59
2022-09-17T06:14:39.383Z,16.40
2022-09-17T06:18:01.011Z,15.84
2022-09-17T06:21:23.110Z,15.29
2022-09-17T06:24:44.798Z,15.60
2022-09-17T06:28:10.885Z,15.30
2022-09-17T06:31:32.516Z,15.12
2022-09-17T06:34:58.932Z,15.18
2022-09-17T06:38:20.492Z,15.08
2022-09-17T06:41:45.666Z,15.12
2022-09-17T06:45:14.513Z,14.36
2022-09-17T06:48:38.815Z,14.31
2022-09-17T06:52:00.409Z,14.48
2022-09-17T06:55:26.552Z,14.72
2022-09-17T06:58:48.057Z,14.91
2022-09-17T07:02:09.911Z,14.72
2022-09-17T07:05:33.041Z,14.61
2022-09-17T07:08:54.569Z,15.02
2022-09-17T07:12:16.110Z,15.27
2022-09-17T07:15:37.612Z,15.27
2022-09-17T07:18:59.148Z,14.78
2022-09-17T07:22:20.690Z,15.00
2022-09-17T07:25:42.386Z,15.23
2022-09-17T07:29:03.935Z,15.40
2022-09-17T07:32:26.130Z,14.88
2022-09-17T07:35:58.906Z,15.25
2022-09-17T07:39:20.457Z,14.74
2022-09-17T07:42:41.992Z,14.65
2022-09-17T07:46:05.472Z,14.95
2022-09-17T07:49:27.063Z,14.65
2022-09-17T07:52:51.072Z,14.67
2022-09-17T07:56:12.602Z,14.88
2022-09-17T07:59:36.684Z,14.96
2022-09-17T08:02:58.551Z,15.39
2022-09-17T08:06:28.416Z,15.68
2022-09-17T08:09:50.243Z,15.84
2022-09-17T08:13:11.765Z,15.87
2022-09-17T08:16:35.531Z,15.88
2022-09-17T08:19:59.568Z,15.87
2022-09-17T08:23:23.431Z,15.75
2022-09-17T08:26:44.992Z,15.27
2022-09-17T08:30:07.558Z,15.19
2022-09-17T08:33:33.819Z,15.39
2022-09-17T08:36:55.429Z,15.36
2022-09-17T08:40:23.163Z,15.42
2022-09-17T08:44:09.134Z,15.44
2022-09-17T08:47:38.978Z,15.43
2022-09-17T08:51:06.608Z,15.56
2022-09-17T08:54:52.382Z,15.73
2022-09-17T08:58:36.083Z,15.97
2022-09-17T09:02:17.870Z,15.05
2022-09-17T09:05:52.484Z,14.89
2022-09-17T09:09:25.890Z,15.00
2022-09-17T09:12:48.206Z,14.57
2022-09-17T09:16:25.894Z,14.57
2022-09-17T09:19:50.070Z,14.41
2022-09-17T09:23:33.319Z,14.27
2022-09-17T09:27:26.929Z,14.38
2022-09-17T09:31:07.372Z,14.43
2022-09-17T09:34:32.109Z,14.56
2022-09-17T09:38:02.074Z,14.75
2022-09-17T09:41:31.732Z,14.74
2022-09-17T09:44:53.591Z,15.00
2022-09-17T09:48:17.940Z,14.96
2022-09-17T09:51:52.339Z,15.15
2022-09-17T09:55:26.891Z,15.16
2022-09-17T09:58:48.604Z,15.37
2022-09-17T10:02:13.074Z,15.47
2022-09-17T10:05:34.815Z,15.12
2022-09-17T10:08:56.339Z,15.18
2022-09-17T10:12:21.702Z,15.12
2022-09-17T10:15:43.226Z,14.99
2022-09-17T10:19:07.691Z,15.40
2022-09-17T10:22:37.696Z,15.49
2022-09-17T10:26:01.635Z,15.15
2022-09-17T10:29:25.901Z,15.15
2022-09-17T10:33:11.949Z,15.40
2022-09-17T10:36:41.417Z,15.66
2022-09-17T10:40:25.890Z,15.94
2022-09-17T10:43:50.999Z,15.61
2022-09-17T10:47:20.128Z,15.35
2022-09-17T10:50:41.758Z,15.19
2022-09-17T10:54:17.992Z,15.29
2022-09-17T10:58:03.227Z,15.53
2022-09-17T11:01:46.656Z,15.78
2022-09-17T11:05:26.660Z,15.85
2022-09-17T11:09:00.362Z,16.08
2022-09-17T11:12:47.628Z,16.04
2022-09-17T11:16:21.078Z,15.81
2022-09-17T11:19:51.852Z,15.74
2022-09-17T11:23:16.442Z,15.81
2022-09-17T11:26:50.113Z,15.30
2022-09-17T11:30:16.592Z,15.35
2022-09-17T11:33:56.786Z,15.30
2022-09-17T11:37:32.660Z,15.20
2022-09-17T11:41:06.613Z,15.18
2022-09-17T11:44:46.776Z,15.12
2022-09-17T11:48:17.452Z,15.25
2022-09-17T11:51:53.044Z,15.10
2022-09-17T11:55:17.639Z,15.25
2022-09-17T11:59:00.015Z,15.58
2022-09-17T12:02:55.304Z,15.39
2022-09-17T12:06:23.362Z,15.47
2022-09-17T12:09:51.972Z,15.23
2022-09-17T12:13:16.212Z,15.29
2022-09-17T12:16:39.679Z,15.46
2022-09-17T12:20:18.416Z,15.74
2022-09-17T12:24:12.913Z,15.75
2022-09-17T12:27:47.107Z,15.67
2022-09-17T12:31:17.919Z,15.54
2022-09-17T12:35:46.452Z,15.60
2022-09-17T12:39:11.234Z,15.85
2022-09-17T12:42:54.458Z,15.73
2022-09-17T12:46:21.431Z,15.75
2022-09-17T12:50:03.369Z,15.70
2022-09-17T12:53:42.566Z,15.60
2022-09-17T12:57:09.753Z,15.70
2022-09-17T13:00:39.784Z,15.54
2022-09-17T13:04:20.724Z,15.25
2022-09-17T13:07:52.604Z,15.54
2022-09-17T13:11:35.953Z,15.27
2022-09-17T13:15:15.634Z,15.03
2022-09-17T13:19:17.194Z,14.99
2022-09-17T13:22:51.483Z,15.25
2022-09-17T13:26:17.108Z,15.19
2022-09-17T13:29:47.643Z,14.99
2022-09-17T13:33:10.798Z,15.30
2022-09-17T13:36:41.769Z,15.40
2022-09-17T13:40:06.447Z,15.56
2022-09-17T13:43:28.783Z,15.18
2022-09-17T13:46:53.286Z,15.08
2022-09-17T13:50:28.348Z,15.12
2022-09-17T13:53:55.070Z,15.08
2022-09-17T13:57:16.727Z,15.12
2022-09-17T14:00:57.088Z,15.16
2022-09-17T14:04:42.961Z,14.95
2022-09-17T14:08:14.271Z,14.93
2022-09-17T14:11:37.528Z,15.10
2022-09-17T14:15:01.790Z,15.75
2022-09-17T14:18:29.448Z,15.22
2022-09-17T14:22:00.730Z,15.00
2022-09-17T14:25:32.402Z,14.84
2022-09-17T14:29:23.219Z,14.91
2022-09-17T14:33:08.995Z,15.46
2022-09-17T14:36:35.061Z,15.73
2022-09-17T14:39:56.668Z,16.32
2022-09-17T14:43:33.113Z,16.88
2022-09-17T14:47:02.332Z,15.97
2022-09-17T14:50:26.504Z,16.26
2022-09-17T14:54:10.233Z,16.45
2022-09-17T14:57:31.965Z,16.18
2022-09-17T15:00:56.147Z,16.92
2022-09-17T15:04:28.374Z,16.91
2022-09-17T15:07:49.998Z,16.64
2022-09-17T15:11:12.802Z,16.84
2022-09-17T15:14:38.578Z,16.12
2022-09-17T15:18:02.424Z,16.02
2022-09-17T15:21:39.222Z,16.63
2022-09-17T15:25:34.045Z,17.01
2022-09-17T15:28:56.831Z,16.66
2022-09-17T15:32:21.069Z,16.12
2022-09-17T15:35:59.181Z,16.67
2022-09-17T15:39:32.599Z,16.32
2022-09-17T15:43:26.912Z,15.80
2022-09-17T15:46:51.641Z,15.78
2022-09-17T15:50:18.013Z,15.87
2022-09-17T15:53:39.901Z,15.75
2022-09-17T15:57:06.679Z,15.66
2022-09-17T16:00:28.610Z,15.53
2022-09-17T16:04:13.080Z,15.42
2022-09-17T16:07:37.176Z,15.47
2022-09-17T16:10:58.679Z,15.26
2022-09-17T16:14:23.211Z,14.84
2022-09-17T16:17:48.537Z,14.82
2022-09-17T16:21:19.262Z,14.93
2022-09-17T16:24:43.540Z,15.18
2022-09-17T16:28:15.476Z,15.06
2022-09-17T16:31:37.016Z,14.81
2022-09-17T16:34:58.659Z,14.51
2022-09-17T16:38:22.846Z,14.63
2022-09-17T16:41:44.371Z,14.60
2022-09-17T16:45:07.610Z,14.67
2022-09-17T16:48:29.160Z,14.70
2022-09-17T16:51:53.001Z,14.89
2022-09-17T16:55:16.923Z,14.50
2022-09-17T16:58:38.729Z,14.41
2022-09-17T17:02:00.385Z,14.50
2022-09-17T17:05:23.167Z,14.50
2022-09-17T17:08:45.320Z,14.58
2022-09-17T17:12:09.820Z,14.20
2022-09-17T17:15:31.535Z,13.82
2022-09-17T17:18:55.558Z,13.90
2022-09-17T17:22:17.121Z,14.17
2022-09-17T17:25:38.685Z,14.19
2022-09-17T17:29:00.343Z,14.43
2022-09-17T17:32:23.944Z,14.45
2022-09-17T17:35:46.246Z,14.54
2022-09-17T17:39:08.238Z,14.38
2022-09-17T17:42:37.218Z,14.38
2022-09-17T17:46:05.088Z,14.36
2022-09-17T17:49:26.675Z,14.36
2022-09-17T17:52:51.217Z,14.38
2022-09-17T17:56:15.769Z,14.40
2022-09-17T17:59:37.302Z,14.47
2022-09-17T18:03:03.382Z,14.48
2022-09-17T18:06:28.377Z,14.22
2022-09-17T18:09:52.665Z,13.61
2022-09-17T18:13:17.168Z,13.37
2022-09-17T18:16:41.084Z,13.24
2022-09-17T18:20:04.599Z,12.75
2022-09-17T18:23:26.174Z,12.61
2022-09-17T18:26:47.704Z,13.18
2022-09-17T18:30:10.026Z,13.71
2022-09-17T18:33:31.647Z,13.65
2022-09-17T18:36:55.421Z,13.95
2022-09-17T18:40:17.145Z,13.98
2022-09-17T18:43:40.553Z,13.71
2022-09-17T18:47:04.435Z,13.71
2022-09-17T18:50:28.198Z,13.92
2022-09-17T18:53:51.771Z,14.16
2022-09-17T18:57:16.364Z,14.14
2022-09-17T19:00:40.739Z,14.12
2022-09-17T19:04:07.633Z,14.19
2022-09-17T19:07:29.379Z,14.27
2022-09-17T19:10:56.351Z,14.13
2022-09-17T19:14:21.283Z,14.02
2022-09-17T19:17:42.827Z,14.13
2022-09-17T19:21:08.709Z,13.92
2022-09-17T19:24:33.232Z,13.62
2022-09-17T19:27:57.790Z,13.79
2022-09-17T19:31:21.906Z,13.55
2022-09-17T19:34:43.542Z,13.18
2022-09-17T19:38:05.138Z,13.09
2022-09-17T19:41:26.741Z,13.40
2022-09-17T19:44:48.265Z,13.65
2022-09-17T19:48:09.791Z,13.02
2022-09-17T19:51:32.055Z,13.14
2022-09-17T19:54:55.934Z,13.23
2022-09-17T19:58:20.034Z,13.38
2022-09-17T20:01:44.886Z,13.53
2022-09-17T20:05:11.822Z,13.54
2022-09-17T20:08:35.896Z,13.87
2022-09-17T20:12:01.544Z,13.75
2022-09-17T20:15:25.371Z,13.55
2022-09-17T20:18:48.095Z,13.47
2022-09-17T20:22:14.912Z,13.41
2022-09-17T20:25:36.506Z,13.30
2022-09-17T20:28:58.044Z,13.53
2022-09-17T20:32:21.069Z,13.65
2022-09-17T20:35:42.579Z,13.45
2022-09-17T20:39:22.390Z,13.68
2022-09-17T20:42:44.757Z,13.54
2022-09-17T20:46:07.512Z,13.59
2022-09-17T20:49:32.090Z,13.79
2022-09-17T20:52:58.157Z,13.83
2022-09-17T20:56:22.368Z,13.64
2022-09-17T20:59:52.483Z,13.61
2022-09-17T21:03:14.170Z,13.34
2022-09-17T21:06:40.605Z,13.37
2022-09-17T21:10:02.131Z,13.31
2022-09-17T21:13:26.291Z,13.31
2022-09-17T21:16:49.083Z,13.14
2022-09-17T21:20:10.713Z,13.00
2022-09-17T21:23:42.142Z,12.55
2022-09-17T21:27:03.746Z,12.70
2022-09-17T21:30:27.889Z,12.86
2022-09-17T21:33:53.605Z,13.02
2022-09-17T21:37:20.043Z,13.04
2022-09-17T21:40:44.064Z,12.99
2022-09-17T21:44:08.199Z,12.63
2022-09-17T21:47:32.153Z,12.82
2022-09-17T21:50:53.943Z,12.80
2022-09-17T21:54:18.898Z,13.20
2022-09-17T21:57:40.392Z,12.73
2022-09-17T22:01:19.466Z,12.28
2022-09-17T22:04:44.404Z,12.24
2022-09-17T22:08:05.955Z,12.16
2022-09-17T22:11:32.772Z,12.63
2022-09-17T22:14:54.793Z,12.17
2022-09-17T22:18:21.659Z,12.13
2022-09-17T22:21:47.628Z,12.14
2022-09-17T22:25:11.381Z,12.41
2022-09-17T22:28:35.754Z,12.72
2022-09-17T22:31:59.627Z,12.73
2022-09-17T22:35:24.141Z,12.62
2022-09-17T22:38:50.826Z,12.68
2022-09-17T22:42:12.463Z,12.85
2022-09-17T22:45:33.941Z,12.75
2022-09-17T22:48:56.386Z,12.89
2022-09-17T22:52:22.079Z,12.82
2022-09-17T22:55:43.821Z,12.95
2022-09-17T22:59:07.867Z,12.79
2022-09-17T23:02:31.150Z,12.58
2022-09-17T23:06:15.879Z,12.63
2022-09-17T23:09:42.862Z,12.85
2022-09-17T23:13:04.390Z,12.89
2022-09-17T23:16:27.400Z,13.13
2022-09-17T23:19:48.987Z,13.03
2022-09-17T23:23:13.561Z,12.99
2022-09-17T23:26:39.671Z,12.92
2022-09-17T23:30:03.973Z,13.06
2022-09-17T23:33:25.587Z,13.11
2022-09-17T23:36:47.525Z,13.02
2022-09-17T23:40:18.199Z,12.80
2022-09-17T23:43:39.779Z,12.68
2022-09-17T23:47:01.337Z,12.11
2022-09-17T23:50:23.325Z,11.89
2022-09-17T23:53:44.874Z,11.83
2022-09-17T23:57:06.441Z,11.93
